sensor_id;sensor_type;location;lat;lon;timestamp;P1;durP1;ratioP1;P2;durP2;ratioP2
69502;SDS011;56704;54.242;12.442;2024-03-02T00:01:12;53.27;;;18.37;;
69502;SDS011;56704;54.242;12.442;2024-03-02T00:03:38;52.80;;;18.95;;
69502;SDS011;56704;54.242;12.442;2024-03-02T00:06:05;54.47;;;18.98;;
69502;SDS011;56704;54.242;12.442;2024-03-02T00:08:33;53.95;;;19.35;;
69502;SDS011;56704;54.242;12.442;2024-03-02T00:13:33;51.73;;;17.87;;
69502;SDS011;56704;54.242;12.442;2024-03-02T00:16:00;53.92;;;19.50;;
69502;SDS011;56704;54.242;12.442;2024-03-02T00:18:31;56.92;;;19.27;;
69502;SDS011;56704;54.242;12.442;2024-03-02T00:20:59;56.58;;;19.25;;
69502;SDS011;56704;54.242;12.442;2024-03-02T00:23:28;54.58;;;18.27;;
69502;SDS011;56704;54.242;12.442;2024-03-02T00:25:57;59.50;;;20.47;;
69502;SDS011;56704;54.242;12.442;2024-03-02T00:28:25;48.33;;;17.00;;
69502;SDS011;56704;54.242;12.442;2024-03-02T00:30:57;56.80;;;19.20;;
69502;SDS011;56704;54.242;12.442;2024-03-02T00:33:26;55.10;;;18.77;;
69502;SDS011;56704;54.242;12.442;2024-03-02T00:35:55;56.35;;;18.02;;
69502;SDS011;56704;54.242;12.442;2024-03-02T00:38:23;54.83;;;18.97;;
69502;SDS011;56704;54.242;12.442;2024-03-02T00:40:50;52.55;;;18.40;;
69502;SDS011;56704;54.242;12.442;2024-03-02T00:46:10;59.00;;;18.08;;
69502;SDS011;56704;54.242;12.442;2024-03-02T00:48:37;54.13;;;18.02;;
69502;SDS011;56704;54.242;12.442;2024-03-02T00:51:06;50.53;;;17.57;;
69502;SDS011;56704;54.242;12.442;2024-03-02T00:53:32;52.95;;;17.67;;
69502;SDS011;56704;54.242;12.442;2024-03-02T00:55:59;55.33;;;18.00;;
69502;SDS011;56704;54.242;12.442;2024-03-02T00:58:27;58.95;;;19.50;;
69502;SDS011;56704;54.242;12.442;2024-03-02T01:00:54;57.83;;;19.33;;
69502;SDS011;56704;54.242;12.442;2024-03-02T01:03:20;59.10;;;19.40;;
69502;SDS011;56704;54.242;12.442;2024-03-02T01:05:47;52.92;;;17.95;;
69502;SDS011;56704;54.242;12.442;2024-03-02T01:08:15;55.58;;;19.02;;
69502;SDS011;56704;54.242;12.442;2024-03-02T01:10:41;54.53;;;18.83;;
69502;SDS011;56704;54.242;12.442;2024-03-02T01:13:08;53.95;;;18.67;;
69502;SDS011;56704;54.242;12.442;2024-03-02T01:15:35;55.40;;;18.53;;
69502;SDS011;56704;54.242;12.442;2024-03-02T01:18:02;60.33;;;19.05;;
69502;SDS011;56704;54.242;12.442;2024-03-02T01:20:29;60.78;;;18.98;;
69502;SDS011;56704;54.242;12.442;2024-03-02T01:22:55;59.00;;;19.33;;
69502;SDS011;56704;54.242;12.442;2024-03-02T01:25:23;60.28;;;19.15;;
69502;SDS011;56704;54.242;12.442;2024-03-02T01:27:50;62.40;;;19.17;;
69502;SDS011;56704;54.242;12.442;2024-03-02T01:30:16;59.08;;;18.35;;
69502;SDS011;56704;54.242;12.442;2024-03-02T01:32:43;58.15;;;19.33;;
69502;SDS011;56704;54.242;12.442;2024-03-02T01:35:10;60.03;;;19.98;;
69502;SDS011;56704;54.242;12.442;2024-03-02T01:37:37;60.70;;;19.40;;
69502;SDS011;56704;54.242;12.442;2024-03-02T01:40:04;56.63;;;20.53;;
69502;SDS011;56704;54.242;12.442;2024-03-02T01:42:36;59.00;;;19.73;;
69502;SDS011;56704;54.242;12.442;2024-03-02T01:45:03;55.53;;;19.38;;
69502;SDS011;56704;54.242;12.442;2024-03-02T01:47:31;60.40;;;19.40;;
69502;SDS011;56704;54.242;12.442;2024-03-02T01:49:58;55.95;;;18.52;;
69502;SDS011;56704;54.242;12.442;2024-03-02T01:52:25;58.07;;;20.53;;
69502;SDS011;56704;54.242;12.442;2024-03-02T01:54:53;58.97;;;18.75;;
69502;SDS011;56704;54.242;12.442;2024-03-02T01:57:19;54.08;;;19.23;;
69502;SDS011;56704;54.242;12.442;2024-03-02T01:59:48;54.55;;;18.90;;
69502;SDS011;56704;54.242;12.442;2024-03-02T02:02:15;50.75;;;18.98;;
69502;SDS011;56704;54.242;12.442;2024-03-02T02:04:42;54.13;;;19.27;;
69502;SDS011;56704;54.242;12.442;2024-03-02T02:07:09;59.15;;;19.95;;
69502;SDS011;56704;54.242;12.442;2024-03-02T02:09:36;56.80;;;20.45;;
69502;SDS011;56704;54.242;12.442;2024-03-02T02:12:03;56.80;;;19.63;;
69502;SDS011;56704;54.242;12.442;2024-03-02T02:14:31;56.38;;;18.85;;
69502;SDS011;56704;54.242;12.442;2024-03-02T02:17:00;62.10;;;19.10;;
69502;SDS011;56704;54.242;12.442;2024-03-02T02:19:26;52.92;;;19.52;;
69502;SDS011;56704;54.242;12.442;2024-03-02T02:21:54;54.50;;;19.70;;
69502;SDS011;56704;54.242;12.442;2024-03-02T02:24:21;59.65;;;20.38;;
69502;SDS011;56704;54.242;12.442;2024-03-02T02:26:48;54.78;;;19.13;;
69502;SDS011;56704;54.242;12.442;2024-03-02T02:29:14;52.30;;;19.33;;
69502;SDS011;56704;54.242;12.442;2024-03-02T02:31:41;60.50;;;19.88;;
69502;SDS011;56704;54.242;12.442;2024-03-02T02:34:08;59.40;;;20.00;;
69502;SDS011;56704;54.242;12.442;2024-03-02T02:36:36;59.90;;;19.20;;
69502;SDS011;56704;54.242;12.442;2024-03-02T02:39:05;55.35;;;20.38;;
69502;SDS011;56704;54.242;12.442;2024-03-02T02:41:35;55.67;;;19.90;;
69502;SDS011;56704;54.242;12.442;2024-03-02T02:44:02;56.22;;;19.70;;
69502;SDS011;56704;54.242;12.442;2024-03-02T02:46:29;54.28;;;19.45;;
69502;SDS011;56704;54.242;12.442;2024-03-02T02:48:55;56.35;;;19.80;;
69502;SDS011;56704;54.242;12.442;2024-03-02T02:51:22;52.28;;;19.52;;
69502;SDS011;56704;54.242;12.442;2024-03-02T02:53:50;51.77;;;18.83;;
69502;SDS011;56704;54.242;12.442;2024-03-02T02:56:18;51.50;;;19.38;;
69502;SDS011;56704;54.242;12.442;2024-03-02T02:58:45;52.10;;;20.55;;
69502;SDS011;56704;54.242;12.442;2024-03-02T03:01:11;55.45;;;19.27;;
69502;SDS011;56704;54.242;12.442;2024-03-02T03:03:38;55.28;;;20.08;;
69502;SDS011;56704;54.242;12.442;2024-03-02T03:06:04;51.27;;;20.03;;
69502;SDS011;56704;54.242;12.442;2024-03-02T03:08:31;59.95;;;20.48;;
69502;SDS011;56704;54.242;12.442;2024-03-02T03:10:58;51.05;;;18.40;;
69502;SDS011;56704;54.242;12.442;2024-03-02T03:13:26;56.83;;;19.83;;
69502;SDS011;56704;54.242;12.442;2024-03-02T03:15:52;53.38;;;20.02;;
69502;SDS011;56704;54.242;12.442;2024-03-02T03:18:19;55.17;;;19.10;;
69502;SDS011;56704;54.242;12.442;2024-03-02T03:20:45;58.15;;;20.05;;
69502;SDS011;56704;54.242;12.442;2024-03-02T03:23:12;52.40;;;19.63;;
69502;SDS011;56704;54.242;12.442;2024-03-02T03:25:40;50.20;;;17.80;;
69502;SDS011;56704;54.242;12.442;2024-03-02T03:28:07;54.90;;;19.45;;
69502;SDS011;56704;54.242;12.442;2024-03-02T03:30:36;53.33;;;20.40;;
69502;SDS011;56704;54.242;12.442;2024-03-02T03:33:03;50.05;;;20.00;;
69502;SDS011;56704;54.242;12.442;2024-03-02T03:35:31;52.53;;;19.73;;
69502;SDS011;56704;54.242;12.442;2024-03-02T03:37:57;52.63;;;19.23;;
69502;SDS011;56704;54.242;12.442;2024-03-02T03:40:24;54.05;;;19.48;;
69502;SDS011;56704;54.242;12.442;2024-03-02T03:42:51;60.10;;;19.33;;
69502;SDS011;56704;54.242;12.442;2024-03-02T03:45:18;58.92;;;20.95;;
69502;SDS011;56704;54.242;12.442;2024-03-02T03:47:46;59.95;;;21.13;;
69502;SDS011;56704;54.242;12.442;2024-03-02T03:50:12;55.33;;;19.60;;
69502;SDS011;56704;54.242;12.442;2024-03-02T03:52:39;54.20;;;20.25;;
69502;SDS011;56704;54.242;12.442;2024-03-02T03:55:06;58.17;;;20.03;;
69502;SDS011;56704;54.242;12.442;2024-03-02T03:57:33;58.10;;;21.17;;
69502;SDS011;56704;54.242;12.442;2024-03-02T04:00:00;56.83;;;20.85;;
69502;SDS011;56704;54.242;12.442;2024-03-02T04:02:26;55.30;;;20.33;;
69502;SDS011;56704;54.242;12.442;2024-03-02T04:04:54;51.88;;;20.55;;
69502;SDS011;56704;54.242;12.442;2024-03-02T04:07:21;55.63;;;20.60;;
69502;SDS011;56704;54.242;12.442;2024-03-02T04:09:47;60.42;;;21.13;;
69502;SDS011;56704;54.242;12.442;2024-03-02T04:12:14;58.47;;;20.70;;
69502;SDS011;56704;54.242;12.442;2024-03-02T04:14:41;58.90;;;21.33;;
69502;SDS011;56704;54.242;12.442;2024-03-02T04:17:08;57.78;;;18.77;;
69502;SDS011;56704;54.242;12.442;2024-03-02T04:19:35;54.23;;;20.73;;
69502;SDS011;56704;54.242;12.442;2024-03-02T04:22:03;58.80;;;20.08;;
69502;SDS011;56704;54.242;12.442;2024-03-02T04:24:30;56.28;;;19.63;;
69502;SDS011;56704;54.242;12.442;2024-03-02T04:26:57;55.22;;;19.92;;
69502;SDS011;56704;54.242;12.442;2024-03-02T04:29:23;55.72;;;20.05;;
69502;SDS011;56704;54.242;12.442;2024-03-02T04:31:50;55.03;;;20.10;;
69502;SDS011;56704;54.242;12.442;2024-03-02T04:34:16;56.35;;;20.15;;
69502;SDS011;56704;54.242;12.442;2024-03-02T04:36:43;53.92;;;20.10;;
69502;SDS011;56704;54.242;12.442;2024-03-02T04:39:11;57.08;;;20.08;;
69502;SDS011;56704;54.242;12.442;2024-03-02T04:41:37;57.28;;;20.08;;
69502;SDS011;56704;54.242;12.442;2024-03-02T04:44:04;56.20;;;20.83;;
69502;SDS011;56704;54.242;12.442;2024-03-02T04:46:33;56.83;;;21.10;;
69502;SDS011;56704;54.242;12.442;2024-03-02T04:48:59;53.22;;;20.98;;
69502;SDS011;56704;54.242;12.442;2024-03-02T04:51:26;55.10;;;19.77;;
69502;SDS011;56704;54.242;12.442;2024-03-02T04:53:52;54.78;;;20.13;;
69502;SDS011;56704;54.242;12.442;2024-03-02T04:56:20;52.93;;;19.33;;
69502;SDS011;56704;54.242;12.442;2024-03-02T04:59:05;48.88;;;19.13;;
69502;SDS011;56704;54.242;12.442;2024-03-02T05:01:32;53.92;;;19.25;;
69502;SDS011;56704;54.242;12.442;2024-03-02T05:03:58;51.80;;;19.55;;
69502;SDS011;56704;54.242;12.442;2024-03-02T05:06:25;53.22;;;19.40;;
69502;SDS011;56704;54.242;12.442;2024-03-02T05:08:52;53.67;;;19.50;;
69502;SDS011;56704;54.242;12.442;2024-03-02T05:11:18;52.72;;;18.95;;
69502;SDS011;56704;54.242;12.442;2024-03-02T05:14:03;51.03;;;18.58;;
69502;SDS011;56704;54.242;12.442;2024-03-02T05:16:32;54.13;;;19.90;;
69502;SDS011;56704;54.242;12.442;2024-03-02T05:18:59;53.70;;;20.88;;
69502;SDS011;56704;54.242;12.442;2024-03-02T05:21:25;50.33;;;19.43;;
69502;SDS011;56704;54.242;12.442;2024-03-02T05:23:52;55.05;;;19.85;;
69502;SDS011;56704;54.242;12.442;2024-03-02T05:26:19;51.60;;;19.08;;
69502;SDS011;56704;54.242;12.442;2024-03-02T05:28:45;52.75;;;19.38;;
69502;SDS011;56704;54.242;12.442;2024-03-02T05:31:13;53.95;;;20.52;;
69502;SDS011;56704;54.242;12.442;2024-03-02T05:33:41;50.20;;;19.57;;
69502;SDS011;56704;54.242;12.442;2024-03-02T05:36:08;56.80;;;20.45;;
69502;SDS011;56704;54.242;12.442;2024-03-02T05:38:35;51.20;;;19.30;;
69502;SDS011;56704;54.242;12.442;2024-03-02T05:41:01;51.97;;;20.85;;
69502;SDS011;56704;54.242;12.442;2024-03-02T05:43:28;52.85;;;19.48;;
69502;SDS011;56704;54.242;12.442;2024-03-02T05:45:55;50.10;;;19.03;;
69502;SDS011;56704;54.242;12.442;2024-03-02T05:48:23;51.05;;;19.63;;
69502;SDS011;56704;54.242;12.442;2024-03-02T05:50:49;49.78;;;18.88;;
69502;SDS011;56704;54.242;12.442;2024-03-02T05:53:16;54.33;;;19.60;;
69502;SDS011;56704;54.242;12.442;2024-03-02T05:55:42;53.60;;;18.60;;
69502;SDS011;56704;54.242;12.442;2024-03-02T05:58:10;53.27;;;19.43;;
69502;SDS011;56704;54.242;12.442;2024-03-02T06:00:50;48.22;;;19.60;;
69502;SDS011;56704;54.242;12.442;2024-03-02T06:03:17;52.80;;;19.92;;
69502;SDS011;56704;54.242;12.442;2024-03-02T06:05:45;56.63;;;20.33;;
69502;SDS011;56704;54.242;12.442;2024-03-02T06:08:14;55.15;;;20.85;;
69502;SDS011;56704;54.242;12.442;2024-03-02T06:10:41;49.63;;;18.63;;
69502;SDS011;56704;54.242;12.442;2024-03-02T06:13:07;53.88;;;20.13;;
69502;SDS011;56704;54.242;12.442;2024-03-02T06:15:34;56.88;;;20.15;;
69502;SDS011;56704;54.242;12.442;2024-03-02T06:18:01;45.72;;;18.08;;
69502;SDS011;56704;54.242;12.442;2024-03-02T06:20:27;48.72;;;19.38;;
69502;SDS011;56704;54.242;12.442;2024-03-02T06:22:57;50.27;;;19.40;;
69502;SDS011;56704;54.242;12.442;2024-03-02T06:25:24;47.67;;;18.17;;
69502;SDS011;56704;54.242;12.442;2024-03-02T06:27:50;48.45;;;18.52;;
69502;SDS011;56704;54.242;12.442;2024-03-02T06:30:17;52.10;;;19.65;;
69502;SDS011;56704;54.242;12.442;2024-03-02T06:32:45;58.08;;;20.55;;
69502;SDS011;56704;54.242;12.442;2024-03-02T06:35:12;54.03;;;21.60;;
69502;SDS011;56704;54.242;12.442;2024-03-02T06:37:38;57.40;;;19.77;;
69502;SDS011;56704;54.242;12.442;2024-03-02T06:40:07;52.47;;;20.55;;
69502;SDS011;56704;54.242;12.442;2024-03-02T06:42:35;50.78;;;19.15;;
69502;SDS011;56704;54.242;12.442;2024-03-02T06:45:01;54.40;;;20.27;;
69502;SDS011;56704;54.242;12.442;2024-03-02T06:47:29;52.03;;;19.03;;
69502;SDS011;56704;54.242;12.442;2024-03-02T06:49:55;55.15;;;20.15;;
69502;SDS011;56704;54.242;12.442;2024-03-02T06:52:23;57.28;;;20.85;;
69502;SDS011;56704;54.242;12.442;2024-03-02T06:54:50;51.88;;;19.42;;
69502;SDS011;56704;54.242;12.442;2024-03-02T06:57:18;54.95;;;20.33;;
69502;SDS011;56704;54.242;12.442;2024-03-02T06:59:45;50.73;;;19.07;;
69502;SDS011;56704;54.242;12.442;2024-03-02T07:02:13;54.33;;;20.27;;
69502;SDS011;56704;54.242;12.442;2024-03-02T07:04:40;50.28;;;19.77;;
69502;SDS011;56704;54.242;12.442;2024-03-02T07:07:06;48.47;;;19.88;;
69502;SDS011;56704;54.242;12.442;2024-03-02T07:09:33;52.58;;;19.35;;
69502;SDS011;56704;54.242;12.442;2024-03-02T07:12:00;47.87;;;19.33;;
69502;SDS011;56704;54.242;12.442;2024-03-02T07:14:28;55.90;;;19.75;;
69502;SDS011;56704;54.242;12.442;2024-03-02T07:17:08;53.65;;;19.25;;
69502;SDS011;56704;54.242;12.442;2024-03-02T07:19:36;52.20;;;19.60;;
69502;SDS011;56704;54.242;12.442;2024-03-02T07:22:05;50.13;;;19.23;;
69502;SDS011;56704;54.242;12.442;2024-03-02T07:24:33;49.20;;;18.83;;
69502;SDS011;56704;54.242;12.442;2024-03-02T07:27:05;53.90;;;18.75;;
69502;SDS011;56704;54.242;12.442;2024-03-02T07:29:33;51.60;;;19.35;;
69502;SDS011;56704;54.242;12.442;2024-03-02T07:32:00;51.13;;;18.98;;
69502;SDS011;56704;54.242;12.442;2024-03-02T07:34:26;49.85;;;19.13;;
69502;SDS011;56704;54.242;12.442;2024-03-02T07:36:53;48.70;;;18.50;;
69502;SDS011;56704;54.242;12.442;2024-03-02T07:39:20;48.53;;;18.33;;
69502;SDS011;56704;54.242;12.442;2024-03-02T07:41:46;59.05;;;20.15;;
69502;SDS011;56704;54.242;12.442;2024-03-02T07:44:13;54.92;;;19.98;;
69502;SDS011;56704;54.242;12.442;2024-03-02T07:46:41;51.13;;;18.30;;
69502;SDS011;56704;54.242;12.442;2024-03-02T07:49:09;52.40;;;19.10;;
69502;SDS011;56704;54.242;12.442;2024-03-02T07:51:35;49.50;;;18.77;;
69502;SDS011;56704;54.242;12.442;2024-03-02T07:54:02;50.35;;;19.13;;
69502;SDS011;56704;54.242;12.442;2024-03-02T07:56:29;51.38;;;19.08;;
69502;SDS011;56704;54.242;12.442;2024-03-02T07:58:55;55.22;;;20.02;;
69502;SDS011;56704;54.242;12.442;2024-03-02T08:01:26;54.57;;;20.10;;
69502;SDS011;56704;54.242;12.442;2024-03-02T08:03:54;49.35;;;19.13;;
69502;SDS011;56704;54.242;12.442;2024-03-02T08:06:23;49.20;;;19.33;;
69502;SDS011;56704;54.242;12.442;2024-03-02T08:08:52;50.30;;;18.95;;
69502;SDS011;56704;54.242;12.442;2024-03-02T08:11:19;56.47;;;19.13;;
69502;SDS011;56704;54.242;12.442;2024-03-02T08:13:46;49.83;;;20.17;;
69502;SDS011;56704;54.242;12.442;2024-03-02T08:16:12;53.47;;;19.55;;
69502;SDS011;56704;54.242;12.442;2024-03-02T08:18:39;50.83;;;18.30;;
69502;SDS011;56704;54.242;12.442;2024-03-02T08:21:07;50.45;;;18.05;;
69502;SDS011;56704;54.242;12.442;2024-03-02T08:23:34;53.13;;;19.00;;
69502;SDS011;56704;54.242;12.442;2024-03-02T08:26:01;51.33;;;19.63;;
69502;SDS011;56704;54.242;12.442;2024-03-02T08:28:28;52.90;;;18.98;;
69502;SDS011;56704;54.242;12.442;2024-03-02T08:30:54;51.22;;;17.92;;
69502;SDS011;56704;54.242;12.442;2024-03-02T08:33:21;51.88;;;18.80;;
69502;SDS011;56704;54.242;12.442;2024-03-02T08:35:48;51.75;;;18.80;;
69502;SDS011;56704;54.242;12.442;2024-03-02T08:38:16;49.63;;;19.43;;
69502;SDS011;56704;54.242;12.442;2024-03-02T08:40:43;56.53;;;19.45;;
69502;SDS011;56704;54.242;12.442;2024-03-02T08:43:10;54.42;;;21.27;;
69502;SDS011;56704;54.242;12.442;2024-03-02T08:45:37;56.88;;;20.40;;
69502;SDS011;56704;54.242;12.442;2024-03-02T08:48:05;52.38;;;19.67;;
69502;SDS011;56704;54.242;12.442;2024-03-02T08:50:33;55.07;;;19.73;;
69502;SDS011;56704;54.242;12.442;2024-03-02T08:52:59;52.30;;;19.58;;
69502;SDS011;56704;54.242;12.442;2024-03-02T08:55:27;53.78;;;19.90;;
69502;SDS011;56704;54.242;12.442;2024-03-02T08:57:54;50.65;;;20.38;;
69502;SDS011;56704;54.242;12.442;2024-03-02T09:00:21;56.88;;;20.90;;
69502;SDS011;56704;54.242;12.442;2024-03-02T09:02:48;60.87;;;21.83;;
69502;SDS011;56704;54.242;12.442;2024-03-02T09:05:15;56.78;;;22.15;;
69502;SDS011;56704;54.242;12.442;2024-03-02T09:07:42;57.53;;;21.80;;
69502;SDS011;56704;54.242;12.442;2024-03-02T09:10:09;56.38;;;22.40;;
69502;SDS011;56704;54.242;12.442;2024-03-02T09:12:37;62.75;;;22.88;;
69502;SDS011;56704;54.242;12.442;2024-03-02T09:15:04;62.07;;;23.33;;
69502;SDS011;56704;54.242;12.442;2024-03-02T09:17:32;64.88;;;24.95;;
69502;SDS011;56704;54.242;12.442;2024-03-02T09:19:59;63.58;;;25.10;;
69502;SDS011;56704;54.242;12.442;2024-03-02T09:22:25;65.05;;;23.25;;
69502;SDS011;56704;54.242;12.442;2024-03-02T09:24:52;58.30;;;23.05;;
69502;SDS011;56704;54.242;12.442;2024-03-02T09:27:18;61.80;;;23.23;;
69502;SDS011;56704;54.242;12.442;2024-03-02T09:29:46;58.50;;;21.85;;
69502;SDS011;56704;54.242;12.442;2024-03-02T09:32:13;62.65;;;22.70;;
69502;SDS011;56704;54.242;12.442;2024-03-02T09:34:39;60.55;;;22.23;;
69502;SDS011;56704;54.242;12.442;2024-03-02T09:37:06;58.05;;;21.83;;
69502;SDS011;56704;54.242;12.442;2024-03-02T09:39:33;58.23;;;21.17;;
69502;SDS011;56704;54.242;12.442;2024-03-02T09:41:59;59.13;;;21.40;;
69502;SDS011;56704;54.242;12.442;2024-03-02T09:44:26;60.53;;;22.75;;
69502;SDS011;56704;54.242;12.442;2024-03-02T09:46:54;61.60;;;23.33;;
69502;SDS011;56704;54.242;12.442;2024-03-02T09:49:22;58.13;;;21.92;;
69502;SDS011;56704;54.242;12.442;2024-03-02T09:51:49;59.13;;;22.10;;
69502;SDS011;56704;54.242;12.442;2024-03-02T09:54:16;62.00;;;23.13;;
69502;SDS011;56704;54.242;12.442;2024-03-02T09:56:43;60.67;;;22.90;;
69502;SDS011;56704;54.242;12.442;2024-03-02T09:59:10;62.88;;;23.10;;
69502;SDS011;56704;54.242;12.442;2024-03-02T10:01:37;54.60;;;23.23;;
69502;SDS011;56704;54.242;12.442;2024-03-02T10:04:05;58.50;;;22.37;;
69502;SDS011;56704;54.242;12.442;2024-03-02T10:06:32;60.25;;;21.80;;
69502;SDS011;56704;54.242;12.442;2024-03-02T10:08:58;55.90;;;23.05;;
69502;SDS011;56704;54.242;12.442;2024-03-02T10:11:25;56.75;;;22.27;;
69502;SDS011;56704;54.242;12.442;2024-03-02T10:16:40;64.80;;;24.60;;
69502;SDS011;56704;54.242;12.442;2024-03-02T10:19:18;59.10;;;24.15;;
69502;SDS011;56704;54.242;12.442;2024-03-02T10:21:46;62.90;;;23.73;;
69502;SDS011;56704;54.242;12.442;2024-03-02T10:24:14;74.38;;;26.63;;
69502;SDS011;56704;54.242;12.442;2024-03-02T10:26:41;63.55;;;24.13;;
69502;SDS011;56704;54.242;12.442;2024-03-02T10:29:08;66.50;;;25.13;;
69502;SDS011;56704;54.242;12.442;2024-03-02T10:31:36;66.05;;;25.88;;
69502;SDS011;56704;54.242;12.442;2024-03-02T10:34:03;62.95;;;25.15;;
69502;SDS011;56704;54.242;12.442;2024-03-02T10:36:32;67.00;;;25.73;;
69502;SDS011;56704;54.242;12.442;2024-03-02T10:39:00;67.25;;;25.15;;
69502;SDS011;56704;54.242;12.442;2024-03-02T10:41:29;65.10;;;26.07;;
69502;SDS011;56704;54.242;12.442;2024-03-02T10:43:58;65.50;;;25.13;;
69502;SDS011;56704;54.242;12.442;2024-03-02T10:46:26;69.30;;;25.73;;
69502;SDS011;56704;54.242;12.442;2024-03-02T10:48:55;68.03;;;25.08;;
69502;SDS011;56704;54.242;12.442;2024-03-02T10:51:24;64.07;;;24.73;;
69502;SDS011;56704;54.242;12.442;2024-03-02T10:53:52;62.40;;;23.50;;
69502;SDS011;56704;54.242;12.442;2024-03-02T10:56:21;70.95;;;27.38;;
69502;SDS011;56704;54.242;12.442;2024-03-02T10:58:54;62.08;;;23.83;;
69502;SDS011;56704;54.242;12.442;2024-03-02T11:01:26;71.43;;;26.15;;
69502;SDS011;56704;54.242;12.442;2024-03-02T11:03:55;70.07;;;26.17;;
69502;SDS011;56704;54.242;12.442;2024-03-02T11:06:23;70.83;;;26.80;;
69502;SDS011;56704;54.242;12.442;2024-03-02T11:08:53;77.10;;;28.35;;
69502;SDS011;56704;54.242;12.442;2024-03-02T11:11:26;65.78;;;25.98;;
69502;SDS011;56704;54.242;12.442;2024-03-02T11:13:56;75.40;;;27.83;;
69502;SDS011;56704;54.242;12.442;2024-03-02T11:16:33;70.50;;;24.83;;
69502;SDS011;56704;54.242;12.442;2024-03-02T11:19:02;70.37;;;29.00;;
69502;SDS011;56704;54.242;12.442;2024-03-02T11:21:31;73.05;;;28.55;;
69502;SDS011;56704;54.242;12.442;2024-03-02T11:24:00;71.88;;;27.40;;
69502;SDS011;56704;54.242;12.442;2024-03-02T11:26:28;70.13;;;26.30;;
69502;SDS011;56704;54.242;12.442;2024-03-02T11:28:54;65.32;;;25.95;;
69502;SDS011;56704;54.242;12.442;2024-03-02T11:31:24;68.80;;;26.03;;
69502;SDS011;56704;54.242;12.442;2024-03-02T11:34:29;74.03;;;26.00;;
69502;SDS011;56704;54.242;12.442;2024-03-02T11:36:56;66.78;;;25.60;;
69502;SDS011;56704;54.242;12.442;2024-03-02T11:39:25;65.72;;;25.08;;
69502;SDS011;56704;54.242;12.442;2024-03-02T11:41:52;66.90;;;24.65;;
69502;SDS011;56704;54.242;12.442;2024-03-02T11:44:18;72.27;;;26.90;;
69502;SDS011;56704;54.242;12.442;2024-03-02T11:46:45;65.90;;;25.27;;
69502;SDS011;56704;54.242;12.442;2024-03-02T11:49:20;70.25;;;26.83;;
69502;SDS011;56704;54.242;12.442;2024-03-02T11:52:03;72.15;;;26.00;;
69502;SDS011;56704;54.242;12.442;2024-03-02T11:54:33;63.33;;;24.35;;
69502;SDS011;56704;54.242;12.442;2024-03-02T11:57:01;67.13;;;23.67;;
69502;SDS011;56704;54.242;12.442;2024-03-02T11:59:28;65.75;;;24.77;;
69502;SDS011;56704;54.242;12.442;2024-03-02T12:01:55;64.95;;;25.15;;
69502;SDS011;56704;54.242;12.442;2024-03-02T12:04:22;62.17;;;22.30;;
69502;SDS011;56704;54.242;12.442;2024-03-02T12:06:53;68.97;;;24.48;;
69502;SDS011;56704;54.242;12.442;2024-03-02T12:09:21;59.77;;;22.90;;
69502;SDS011;56704;54.242;12.442;2024-03-02T12:12:02;65.03;;;23.38;;
69502;SDS011;56704;54.242;12.442;2024-03-02T12:14:33;71.00;;;25.05;;
69502;SDS011;56704;54.242;12.442;2024-03-02T12:17:00;65.85;;;23.63;;
69502;SDS011;56704;54.242;12.442;2024-03-02T12:19:28;62.05;;;22.25;;
69502;SDS011;56704;54.242;12.442;2024-03-02T12:21:55;62.83;;;23.23;;
69502;SDS011;56704;54.242;12.442;2024-03-02T12:24:22;64.38;;;23.77;;
69502;SDS011;56704;54.242;12.442;2024-03-02T12:26:49;57.58;;;22.27;;
69502;SDS011;56704;54.242;12.442;2024-03-02T12:29:17;59.20;;;22.40;;
69502;SDS011;56704;54.242;12.442;2024-03-02T12:31:44;63.55;;;22.33;;
69502;SDS011;56704;54.242;12.442;2024-03-02T12:34:12;60.47;;;22.83;;
69502;SDS011;56704;54.242;12.442;2024-03-02T12:36:39;61.88;;;21.98;;
69502;SDS011;56704;54.242;12.442;2024-03-02T12:39:07;63.30;;;23.27;;
69502;SDS011;56704;54.242;12.442;2024-03-02T12:41:35;61.47;;;22.67;;
69502;SDS011;56704;54.242;12.442;2024-03-02T12:44:02;55.22;;;22.45;;
69502;SDS011;56704;54.242;12.442;2024-03-02T12:46:30;57.07;;;22.27;;
69502;SDS011;56704;54.242;12.442;2024-03-02T12:48:57;56.75;;;20.52;;
69502;SDS011;56704;54.242;12.442;2024-03-02T12:51:24;52.47;;;19.92;;
69502;SDS011;56704;54.242;12.442;2024-03-02T12:53:53;46.67;;;19.20;;
69502;SDS011;56704;54.242;12.442;2024-03-02T12:56:20;45.65;;;18.08;;
69502;SDS011;56704;54.242;12.442;2024-03-02T12:58:46;44.27;;;17.40;;
69502;SDS011;56704;54.242;12.442;2024-03-02T13:01:14;43.90;;;18.38;;
69502;SDS011;56704;54.242;12.442;2024-03-02T13:03:45;42.58;;;17.60;;
69502;SDS011;56704;54.242;12.442;2024-03-02T13:06:14;40.13;;;17.27;;
69502;SDS011;56704;54.242;12.442;2024-03-02T13:08:42;39.70;;;17.58;;
69502;SDS011;56704;54.242;12.442;2024-03-02T13:11:09;38.60;;;16.70;;
69502;SDS011;56704;54.242;12.442;2024-03-02T13:13:36;38.85;;;16.83;;
69502;SDS011;56704;54.242;12.442;2024-03-02T13:16:03;36.55;;;16.25;;
69502;SDS011;56704;54.242;12.442;2024-03-02T13:18:33;37.97;;;16.80;;
69502;SDS011;56704;54.242;12.442;2024-03-02T13:21:01;35.05;;;15.57;;
69502;SDS011;56704;54.242;12.442;2024-03-02T13:23:28;36.93;;;16.03;;
69502;SDS011;56704;54.242;12.442;2024-03-02T13:25:55;38.47;;;15.93;;
69502;SDS011;56704;54.242;12.442;2024-03-02T13:28:23;41.70;;;17.38;;
69502;SDS011;56704;54.242;12.442;2024-03-02T13:30:50;43.33;;;16.52;;
69502;SDS011;56704;54.242;12.442;2024-03-02T13:33:16;33.03;;;15.27;;
69502;SDS011;56704;54.242;12.442;2024-03-02T13:35:47;35.60;;;15.97;;
69502;SDS011;56704;54.242;12.442;2024-03-02T13:38:16;34.25;;;14.68;;
69502;SDS011;56704;54.242;12.442;2024-03-02T13:40:42;40.70;;;16.90;;
69502;SDS011;56704;54.242;12.442;2024-03-02T13:43:09;38.25;;;15.82;;
69502;SDS011;56704;54.242;12.442;2024-03-02T13:45:36;37.13;;;15.85;;
69502;SDS011;56704;54.242;12.442;2024-03-02T13:48:03;34.50;;;15.10;;
69502;SDS011;56704;54.242;12.442;2024-03-02T13:50:30;36.60;;;15.48;;
69502;SDS011;56704;54.242;12.442;2024-03-02T13:53:07;38.90;;;16.38;;
69502;SDS011;56704;54.242;12.442;2024-03-02T13:55:34;40.00;;;17.15;;
69502;SDS011;56704;54.242;12.442;2024-03-02T13:58:01;39.20;;;16.90;;
69502;SDS011;56704;54.242;12.442;2024-03-02T14:00:27;39.83;;;16.88;;
69502;SDS011;56704;54.242;12.442;2024-03-02T14:02:54;42.78;;;18.77;;
69502;SDS011;56704;54.242;12.442;2024-03-02T14:05:21;40.42;;;16.20;;
69502;SDS011;56704;54.242;12.442;2024-03-02T14:07:47;41.25;;;17.73;;
69502;SDS011;56704;54.242;12.442;2024-03-02T14:10:15;39.10;;;16.83;;
69502;SDS011;56704;54.242;12.442;2024-03-02T14:12:47;38.92;;;16.65;;
69502;SDS011;56704;54.242;12.442;2024-03-02T14:15:13;38.75;;;16.85;;
69502;SDS011;56704;54.242;12.442;2024-03-02T14:17:40;39.13;;;16.38;;
69502;SDS011;56704;54.242;12.442;2024-03-02T14:20:08;36.92;;;16.77;;